createdAt,value
2022-11-18T00:00:52.535Z,9.90
2022-11-18T00:03:19.414Z,9.90
2022-11-18T00:05:56.472Z,10.00
2022-11-18T00:08:24.400Z,9.90
2022-11-18T00:10:51.379Z,9.90
2022-11-18T00:13:36.912Z,9.90
2022-11-18T00:16:06.419Z,10.00
2022-11-18T00:18:33.254Z,10.10
2022-11-18T00:21:04.595Z,10.10
2022-11-18T00:23:31.256Z,10.10
2022-11-18T00:26:06.015Z,10.10
2022-11-18T00:28:33.326Z,10.10
2022-11-18T00:31:05.645Z,10.00
2022-11-18T00:33:32.685Z,10.00
2022-11-18T00:35:59.588Z,10.10
2022-11-18T00:38:27.035Z,10.00
2022-11-18T00:41:04.898Z,9.90
2022-11-18T00:43:32.118Z,10.00
2022-11-18T00:45:58.792Z,9.90
2022-11-18T00:48:25.906Z,10.00
2022-11-18T00:50:54.877Z,10.00
2022-11-18T00:53:23.743Z,10.00
2022-11-18T00:55:51.275Z,9.90
2022-11-18T00:58:18.075Z,10.00
2022-11-18T01:00:48.654Z,9.90
2022-11-18T01:03:15.883Z,9.90
2022-11-18T01:05:42.653Z,9.90
2022-11-18T01:08:10.982Z,9.90
2022-11-18T01:10:39.628Z,9.90
2022-11-18T01:13:19.627Z,9.90
2022-11-18T01:15:50.650Z,9.90
2022-11-18T01:18:19.299Z,9.90
2022-11-18T01:20:46.668Z,10.00
2022-11-18T01:23:14.411Z,10.00
2022-11-18T01:25:43.263Z,10.10
2022-11-18T01:28:10.411Z,9.90
2022-11-18T01:30:38.120Z,10.00
2022-11-18T01:33:05.252Z,9.90
2022-11-18T01:35:50.103Z,9.90
2022-11-18T01:38:16.682Z,10.00
2022-11-18T01:40:43.367Z,10.00
2022-11-18T01:43:15.584Z,9.90
2022-11-18T01:45:43.701Z,10.00
2022-11-18T01:48:26.250Z,9.90
2022-11-18T01:51:05.627Z,9.90
2022-11-18T01:53:38.809Z,9.90
2022-11-18T01:56:12.073Z,9.80
2022-11-18T01:58:54.418Z,9.90
2022-11-18T02:01:21.044Z,9.80
2022-11-18T02:03:49.588Z,9.90
2022-11-18T02:06:16.433Z,9.90
2022-11-18T02:08:43.873Z,9.90
2022-11-18T02:11:32.425Z,9.90
2022-11-18T02:14:00.837Z,9.90
2022-11-18T02:16:41.729Z,9.90
2022-11-18T02:19:37.317Z,9.90
2022-11-18T02:22:06.610Z,9.80
2022-11-18T02:24:49.854Z,9.80
2022-11-18T02:27:45.032Z,9.80
2022-11-18T02:30:15.675Z,9.80
2022-11-18T02:32:48.963Z,9.80
2022-11-18T02:35:39.720Z,9.80
2022-11-18T02:38:31.136Z,9.80
2022-11-18T02:41:07.843Z,9.90
2022-11-18T02:43:40.586Z,9.70
2022-11-18T02:46:11.549Z,9.80
2022-11-18T02:48:42.834Z,9.80
2022-11-18T02:51:12.024Z,9.80
2022-11-18T02:53:40.404Z,9.80
2022-11-18T02:56:08.521Z,9.80
2022-11-18T02:58:35.263Z,9.80
2022-11-18T03:01:02.306Z,9.80
2022-11-18T03:03:30.769Z,9.80
2022-11-18T03:05:57.270Z,9.80
2022-11-18T03:08:28.024Z,9.80
2022-11-18T03:11:03.042Z,9.80
2022-11-18T03:13:41.700Z,9.90
2022-11-18T03:16:17.725Z,9.90
2022-11-18T03:19:14.286Z,9.80
2022-11-18T03:21:45.493Z,9.90
2022-11-18T03:24:19.033Z,9.90
2022-11-18T03:26:51.353Z,9.90
2022-11-18T03:29:23.448Z,9.80
2022-11-18T03:32:00.852Z,9.80
2022-11-18T03:34:31.914Z,9.80
2022-11-18T03:37:05.156Z,9.80
2022-11-18T03:39:38.587Z,9.90
2022-11-18T03:42:11.575Z,9.80
2022-11-18T03:44:41.048Z,9.90
2022-11-18T03:47:14.699Z,9.90
2022-11-18T03:49:50.233Z,9.80
2022-11-18T03:52:26.245Z,9.90
2022-11-18T03:54:56.651Z,10.00
2022-11-18T03:57:37.810Z,10.00
2022-11-18T04:00:10.870Z,10.00
2022-11-18T04:02:38.381Z,10.00
2022-11-18T04:05:09.092Z,10.00
2022-11-18T04:07:47.647Z,10.10
2022-11-18T04:10:26.899Z,10.10
2022-11-18T04:13:16.199Z,10.10
2022-11-18T04:15:43.351Z,10.10
2022-11-18T04:18:10.198Z,10.00
2022-11-18T04:20:37.534Z,10.10
2022-11-18T04:23:05.578Z,10.10
2022-11-18T04:25:32.226Z,10.10
2022-11-18T04:27:58.752Z,10.10
2022-11-18T04:30:25.510Z,10.10
2022-11-18T04:32:52.047Z,10.20
2022-11-18T04:35:18.594Z,10.00
2022-11-18T04:37:45.159Z,10.00
2022-11-18T04:40:12.010Z,10.00
2022-11-18T04:42:38.651Z,9.90
2022-11-18T04:45:05.991Z,10.00
2022-11-18T04:47:32.538Z,10.10
2022-11-18T04:49:59.158Z,10.10
2022-11-18T04:52:25.711Z,10.00
2022-11-18T04:54:52.265Z,10.10
2022-11-18T04:57:18.846Z,10.10
2022-11-18T04:59:45.435Z,10.10
2022-11-18T05:02:12.940Z,10.00
2022-11-18T05:04:39.495Z,10.10
2022-11-18T05:07:07.819Z,10.10
2022-11-18T05:09:34.687Z,10.10
2022-11-18T05:12:20.378Z,10.00
2022-11-18T05:14:50.585Z,10.10
2022-11-18T05:17:18.503Z,10.00
2022-11-18T05:19:45.110Z,10.00
2022-11-18T05:22:11.650Z,10.10
2022-11-18T05:24:38.182Z,10.00
2022-11-18T05:27:04.757Z,10.00
2022-11-18T05:29:31.576Z,10.00
2022-11-18T05:31:58.107Z,10.10
2022-11-18T05:34:25.015Z,9.90
2022-11-18T05:36:51.750Z,9.90
2022-11-18T05:39:18.591Z,9.90
2022-11-18T05:42:03.593Z,9.90
2022-11-18T05:44:30.186Z,9.90
2022-11-18T05:46:56.744Z,9.90
2022-11-18T05:49:23.673Z,9.90
2022-11-18T05:51:50.261Z,9.80
2022-11-18T05:54:19.125Z,9.80
2022-11-18T05:56:45.995Z,9.70
2022-11-18T05:59:13.877Z,9.80
2022-11-18T06:02:01.204Z,9.70
2022-11-18T06:04:36.716Z,9.70
2022-11-18T06:07:47.403Z,9.70
2022-11-18T06:10:28.373Z,9.70
2022-11-18T06:13:02.479Z,9.70
2022-11-18T06:15:36.606Z,9.70
2022-11-18T06:18:21.147Z,9.70
2022-11-18T06:20:48.010Z,9.70
2022-11-18T06:23:14.901Z,9.60
2022-11-18T06:25:41.787Z,9.60
2022-11-18T06:28:10.681Z,9.60
2022-11-18T06:30:37.213Z,9.60
2022-11-18T06:33:03.843Z,9.60
2022-11-18T06:35:30.418Z,9.60
2022-11-18T06:37:57.119Z,9.50
2022-11-18T06:40:23.704Z,9.50
2022-11-18T06:43:08.971Z,9.50
2022-11-18T06:45:35.625Z,9.50
2022-11-18T06:48:02.188Z,9.50
2022-11-18T06:50:29.087Z,9.50
2022-11-18T06:52:56.379Z,9.40
2022-11-18T06:55:23.291Z,9.40
2022-11-18T06:57:49.849Z,9.50
2022-11-18T07:00:16.951Z,9.40
2022-11-18T07:02:43.513Z,9.50
2022-11-18T07:05:10.106Z,9.50
2022-11-18T07:07:41.814Z,9.40
2022-11-18T07:10:09.494Z,9.50
2022-11-18T07:12:36.055Z,9.50
2022-11-18T07:15:02.620Z,9.50
2022-11-18T07:17:30.725Z,9.50
2022-11-18T07:19:57.483Z,9.50
2022-11-18T07:22:24.060Z,9.50
2022-11-18T07:24:50.614Z,9.40
2022-11-18T07:27:17.172Z,9.40
2022-11-18T07:29:43.756Z,9.40
2022-11-18T07:32:10.316Z,9.40
2022-11-18T07:34:36.889Z,9.40
2022-11-18T07:37:03.435Z,9.40
2022-11-18T07:39:29.997Z,9.30
2022-11-18T07:41:56.550Z,9.30
2022-11-18T07:44:23.083Z,9.30
2022-11-18T07:46:49.646Z,9.30
2022-11-18T07:49:16.384Z,9.20
2022-11-18T07:51:43.159Z,9.30
2022-11-18T07:54:16.990Z,9.30
2022-11-18T07:56:43.884Z,9.30
2022-11-18T07:59:10.481Z,9.30
2022-11-18T08:01:37.400Z,9.20
2022-11-18T08:04:09.941Z,9.20
2022-11-18T08:06:37.553Z,9.20
2022-11-18T08:09:06.025Z,9.20
2022-11-18T08:11:32.898Z,9.10
2022-11-18T08:13:59.552Z,9.10
2022-11-18T08:16:26.318Z,9.10
2022-11-18T08:18:53.447Z,9.10
2022-11-18T08:21:21.657Z,9.10
2022-11-18T08:23:57.808Z,9.10
2022-11-18T08:26:25.515Z,9.10
2022-11-18T08:28:52.657Z,9.10
2022-11-18T08:31:27.884Z,9.10
2022-11-18T08:34:06.018Z,9.10
2022-11-18T08:36:35.443Z,9.20
2022-11-18T08:39:04.329Z,9.20
2022-11-18T08:41:42.401Z,9.20
2022-11-18T08:44:12.646Z,9.20
2022-11-18T08:46:39.254Z,9.10
2022-11-18T08:49:05.848Z,9.10
2022-11-18T08:51:32.631Z,9.10
2022-11-18T08:53:59.227Z,9.20
2022-11-18T08:56:26.100Z,9.30
2022-11-18T08:58:52.996Z,9.40
2022-11-18T09:01:19.708Z,9.30
2022-11-18T09:03:47.179Z,9.20
2022-11-18T09:06:15.068Z,9.30
2022-11-18T09:08:42.976Z,9.30
2022-11-18T09:11:14.784Z,9.40
2022-11-18T09:16:31.405Z,9.50
2022-11-18T09:19:08.539Z,9.60
2022-11-18T09:21:44.997Z,9.70
2022-11-18T09:24:11.646Z,9.70
2022-11-18T09:26:38.665Z,9.70
2022-11-18T09:29:05.430Z,9.70
2022-11-18T09:31:32.051Z,9.70
2022-11-18T09:34:01.673Z,9.70
2022-11-18T09:36:28.442Z,9.70
2022-11-18T09:38:55.178Z,9.80
2022-11-18T09:41:43.606Z,9.80
2022-11-18T09:44:25.528Z,9.90
2022-11-18T09:47:02.871Z,9.90
2022-11-18T09:49:31.146Z,10.00
2022-11-18T09:52:01.684Z,9.90
2022-11-18T09:54:33.595Z,10.00
2022-11-18T09:57:01.302Z,10.00
2022-11-18T09:59:31.323Z,10.00
2022-11-18T10:02:21.443Z,10.00
2022-11-18T10:04:48.017Z,10.10
2022-11-18T10:07:21.893Z,10.10
2022-11-18T10:09:54.296Z,10.10
2022-11-18T10:12:44.477Z,10.20
2022-11-18T10:15:36.115Z,10.20
2022-11-18T10:18:52.824Z,10.20
2022-11-18T10:21:28.795Z,10.20
2022-11-18T10:24:22.106Z,10.20
2022-11-18T10:26:55.690Z,10.30
2022-11-18T10:29:23.588Z,10.40
2022-11-18T10:32:07.607Z,10.50
2022-11-18T10:34:35.775Z,10.50
2022-11-18T10:37:34.711Z,10.50
2022-11-18T10:40:24.375Z,10.50
2022-11-18T10:42:50.979Z,10.60
2022-11-18T10:45:25.046Z,10.60
2022-11-18T10:48:16.174Z,10.70
2022-11-18T10:50:43.775Z,10.70
2022-11-18T10:53:29.169Z,10.80
2022-11-18T10:56:03.374Z,10.90
2022-11-18T10:58:31.675Z,10.90
2022-11-18T11:01:24.514Z,11.00
2022-11-18T11:04:01.989Z,11.00
2022-11-18T11:06:38.190Z,11.00
2022-11-18T11:09:15.219Z,11.00
2022-11-18T11:11:54.967Z,11.10
2022-11-18T11:14:48.239Z,11.00
2022-11-18T11:17:26.117Z,11.00
2022-11-18T11:20:01.998Z,11.10
2022-11-18T11:22:28.731Z,11.20
2022-11-18T11:24:56.787Z,11.30
2022-11-18T11:30:26.430Z,11.30
2022-11-18T11:32:52.968Z,11.30
2022-11-18T11:35:27.542Z,11.30
2022-11-18T11:38:06.390Z,11.30
2022-11-18T11:40:54.214Z,11.30
2022-11-18T11:43:34.919Z,11.30
2022-11-18T11:46:26.799Z,11.40
2022-11-18T11:49:15.865Z,11.40
2022-11-18T11:51:56.698Z,11.30
2022-11-18T11:54:37.407Z,11.20
2022-11-18T11:57:36.377Z,11.20
2022-11-18T12:00:09.157Z,11.30
2022-11-18T12:03:07.755Z,11.50
2022-11-18T12:05:40.440Z,11.70
2022-11-18T12:08:13.979Z,11.80
2022-11-18T12:11:05.180Z,11.80
2022-11-18T12:13:37.930Z,11.90
2022-11-18T12:16:13.421Z,11.80
2022-11-18T12:18:46.111Z,11.70
2022-11-18T12:21:46.670Z,11.60
2022-11-18T12:24:34.216Z,11.60
2022-11-18T12:27:24.031Z,11.50
2022-11-18T12:29:50.655Z,11.60
2022-11-18T12:32:30.803Z,11.80
2022-11-18T12:35:01.321Z,12.00
2022-11-18T12:37:27.853Z,12.00
2022-11-18T12:39:58.233Z,12.00
2022-11-18T12:43:05.734Z,12.00
2022-11-18T12:45:38.496Z,12.00
2022-11-18T12:48:27.696Z,12.10
2022-11-18T12:51:19.061Z,12.00
2022-11-18T12:53:50.546Z,12.40
2022-11-18T12:56:27.866Z,12.60
2022-11-18T12:58:57.034Z,12.70
2022-11-18T13:01:26.306Z,12.90
2022-11-18T13:04:05.653Z,13.00
2022-11-18T13:06:34.586Z,13.10
2022-11-18T13:09:03.737Z,12.90
2022-11-18T13:11:45.134Z,12.70
2022-11-18T13:14:57.689Z,12.70
2022-11-18T13:17:52.743Z,12.30
2022-11-18T13:20:39.248Z,12.10
2022-11-18T13:23:54.873Z,12.10
2022-11-18T13:26:31.661Z,12.10
2022-11-18T13:29:20.578Z,12.10
2022-11-18T13:32:01.919Z,12.10
2022-11-18T13:34:30.754Z,12.00
2022-11-18T13:36:59.739Z,12.00
2022-11-18T13:39:29.115Z,12.00
2022-11-18T13:42:05.634Z,12.00
2022-11-18T13:44:37.586Z,12.10
2022-11-18T13:47:16.885Z,12.10
2022-11-18T13:49:53.650Z,12.00
2022-11-18T13:52:40.317Z,12.00
2022-11-18T13:55:15.050Z,12.10
2022-11-18T13:57:45.593Z,12.10
2022-11-18T14:00:21.442Z,12.20
2022-11-18T14:03:00.081Z,12.10
2022-11-18T14:05:27.240Z,12.20
2022-11-18T14:08:06.191Z,12.30
2022-11-18T14:10:43.974Z,12.20
2022-11-18T14:13:23.317Z,12.20
2022-11-18T14:15:50.208Z,12.20
2022-11-18T14:18:31.333Z,12.10
2022-11-18T14:20:58.956Z,12.00
2022-11-18T14:23:34.572Z,11.90
2022-11-18T14:26:06.196Z,11.80
2022-11-18T14:28:36.659Z,11.80
2022-11-18T14:31:28.047Z,11.80
2022-11-18T14:34:23.823Z,11.80
2022-11-18T14:36:51.701Z,11.70
2022-11-18T14:39:32.160Z,11.70
2022-11-18T14:42:01.433Z,11.60
2022-11-18T14:44:28.628Z,11.70
2022-11-18T14:47:09.988Z,11.60
2022-11-18T14:49:37.103Z,11.60
2022-11-18T14:52:04.504Z,11.60
2022-11-18T14:54:31.534Z,11.60
2022-11-18T14:57:01.512Z,11.70
2022-11-18T14:59:28.443Z,11.60
2022-11-18T15:01:56.430Z,11.60
2022-11-18T15:04:23.316Z,11.50
2022-11-18T15:06:49.856Z,11.50
2022-11-18T15:09:16.569Z,11.50
2022-11-18T15:11:43.248Z,11.50
2022-11-18T15:14:09.923Z,11.50
2022-11-18T15:16:36.611Z,11.40
2022-11-18T15:19:05.605Z,11.50
2022-11-18T15:21:33.258Z,11.50
2022-11-18T15:23:59.936Z,11.50
2022-11-18T15:26:29.466Z,11.40
2022-11-18T15:28:57.626Z,11.40
2022-11-18T15:31:25.317Z,11.40
2022-11-18T15:33:52.705Z,11.40
2022-11-18T15:36:25.005Z,11.40
2022-11-18T15:38:52.894Z,11.40
2022-11-18T15:41:21.361Z,11.40
2022-11-18T15:43:49.379Z,11.30
2022-11-18T15:46:19.177Z,11.30
2022-11-18T15:48:46.489Z,11.30
2022-11-18T15:51:13.085Z,11.30
2022-11-18T15:53:40.126Z,11.30
2022-11-18T15:56:19.027Z,11.30
2022-11-18T15:58:56.648Z,11.30
2022-11-18T16:01:28.702Z,11.30
2022-11-18T16:03:55.883Z,11.30
2022-11-18T16:06:23.497Z,11.20
2022-11-18T16:08:54.446Z,11.20
2022-11-18T16:11:42.944Z,11.20
2022-11-18T16:14:11.800Z,11.20
2022-11-18T16:16:40.171Z,11.20
2022-11-18T16:19:09.498Z,11.20
2022-11-18T16:21:38.730Z,11.20
2022-11-18T16:24:07.532Z,11.20
2022-11-18T16:26:34.775Z,11.20
2022-11-18T16:29:05.667Z,11.20
2022-11-18T16:31:41.368Z,11.10
2022-11-18T16:34:09.746Z,11.00
2022-11-18T16:36:37.288Z,11.00
2022-11-18T16:39:08.706Z,11.00
2022-11-18T16:41:35.699Z,11.00
2022-11-18T16:44:07.906Z,11.00
2022-11-18T16:46:37.095Z,11.00
2022-11-18T16:49:05.479Z,11.00
2022-11-18T16:51:34.682Z,11.00
2022-11-18T16:54:03.577Z,11.00
2022-11-18T16:56:32.865Z,11.00
2022-11-18T16:59:05.124Z,10.90
2022-11-18T17:01:32.727Z,10.70
2022-11-18T17:04:01.078Z,10.40
2022-11-18T17:06:28.956Z,10.20
2022-11-18T17:08:55.882Z,10.10
2022-11-18T17:11:22.520Z,9.90
2022-11-18T17:13:53.341Z,9.90
2022-11-18T17:16:23.690Z,9.90
2022-11-18T17:18:57.779Z,9.90
2022-11-18T17:21:25.398Z,9.90
2022-11-18T17:23:52.595Z,9.90
2022-11-18T17:26:21.730Z,9.90
2022-11-18T17:28:48.813Z,9.90
2022-11-18T17:31:19.168Z,10.00
2022-11-18T17:33:46.547Z,10.00
2022-11-18T17:36:18.383Z,10.00
2022-11-18T17:38:47.204Z,10.00
2022-11-18T17:41:34.062Z,10.10
2022-11-18T17:44:02.031Z,10.10
2022-11-18T17:46:32.145Z,10.10
2022-11-18T17:49:04.961Z,10.10
2022-11-18T17:51:32.158Z,10.10
2022-11-18T17:53:58.734Z,10.20
2022-11-18T17:56:25.433Z,10.00
2022-11-18T17:58:52.700Z,10.10
2022-11-18T18:01:21.234Z,10.10
2022-11-18T18:03:48.259Z,10.10
2022-11-18T18:06:15.485Z,10.10
2022-11-18T18:08:42.760Z,10.00
2022-11-18T18:11:17.606Z,10.10
2022-11-18T18:14:03.860Z,10.00
2022-11-18T18:16:32.135Z,9.90
2022-11-18T18:18:59.865Z,10.00
2022-11-18T18:21:26.881Z,10.00
2022-11-18T18:23:53.698Z,10.00
2022-11-18T18:26:20.409Z,10.10
2022-11-18T18:28:47.212Z,10.20
2022-11-18T18:31:16.437Z,10.10
2022-11-18T18:33:44.044Z,10.10
2022-11-18T18:36:18.757Z,10.10
2022-11-18T18:38:46.096Z,9.90
2022-11-18T18:41:13.968Z,9.90
2022-11-18T18:43:40.922Z,9.90
2022-11-18T18:46:31.812Z,10.00
2022-11-18T18:49:07.433Z,10.00
2022-11-18T18:51:37.846Z,10.10
2022-11-18T18:54:05.292Z,10.10
2022-11-18T18:56:32.911Z,10.00
2022-11-18T18:59:00.126Z,10.00
2022-11-18T19:01:27.501Z,10.00
2022-11-18T19:03:56.501Z,10.00
2022-11-18T19:06:56.696Z,9.90
2022-11-18T19:09:20.680Z,10.00
2022-11-18T19:12:06.465Z,9.90
2022-11-18T19:14:34.838Z,9.90
2022-11-18T19:17:08.191Z,10.00
2022-11-18T19:19:55.122Z,10.00
2022-11-18T19:22:22.130Z,10.00
2022-11-18T19:24:50.555Z,9.90
2022-11-18T19:27:18.347Z,9.90
2022-11-18T19:29:45.030Z,9.90
2022-11-18T19:32:11.706Z,9.80
2022-11-18T19:34:38.284Z,9.90
2022-11-18T19:37:05.014Z,9.90
2022-11-18T19:39:31.599Z,10.00
2022-11-18T19:41:58.643Z,10.00
2022-11-18T19:44:25.448Z,10.00
2022-11-18T19:46:52.127Z,10.00
2022-11-18T19:49:19.043Z,10.00
2022-11-18T19:51:45.803Z,10.10
2022-11-18T19:54:12.350Z,10.10
2022-11-18T19:56:38.958Z,10.20
2022-11-18T19:59:05.539Z,10.10
2022-11-18T20:01:32.720Z,10.20
2022-11-18T20:04:02.804Z,10.40
2022-11-18T20:06:29.472Z,10.40
2022-11-18T20:08:56.857Z,10.30
2022-11-18T20:11:24.136Z,10.10
2022-11-18T20:13:51.103Z,10.00
2022-11-18T20:16:23.489Z,10.00
2022-11-18T20:18:55.674Z,10.00
2022-11-18T20:21:23.370Z,10.00
2022-11-18T20:23:58.719Z,10.00
2022-11-18T20:26:31.479Z,10.00
2022-11-18T20:28:58.169Z,9.90
2022-11-18T20:31:26.077Z,9.90
2022-11-18T20:33:54.349Z,10.00
2022-11-18T20:36:26.878Z,10.00
2022-11-18T20:38:56.418Z,10.00
2022-11-18T20:41:24.262Z,9.90
2022-11-18T20:43:51.084Z,9.80
2022-11-18T20:46:20.934Z,9.80
2022-11-18T20:48:48.761Z,9.90
2022-11-18T20:51:25.147Z,9.80
2022-11-18T20:53:53.554Z,9.80
2022-11-18T20:56:23.021Z,9.70
2022-11-18T20:58:49.992Z,9.60
2022-11-18T21:01:24.085Z,9.70
2022-11-18T21:03:56.296Z,9.90
2022-11-18T21:06:25.078Z,9.70
2022-11-18T21:09:02.707Z,9.70
2022-11-18T21:11:30.232Z,9.80
2022-11-18T21:14:21.507Z,9.80
2022-11-18T21:16:51.268Z,9.90
2022-11-18T21:19:18.493Z,9.90
2022-11-18T21:21:45.343Z,9.90
2022-11-18T21:24:12.938Z,9.90
2022-11-18T21:26:40.397Z,9.90
2022-11-18T21:29:09.108Z,9.90
2022-11-18T21:31:36.226Z,9.90
2022-11-18T21:34:02.862Z,9.90
2022-11-18T21:36:29.946Z,9.90
2022-11-18T21:38:58.658Z,9.80
2022-11-18T21:41:26.451Z,10.00
2022-11-18T21:44:08.709Z,9.90
2022-11-18T21:46:37.201Z,10.10
2022-11-18T21:49:05.055Z,10.00
2022-11-18T21:51:33.432Z,10.10
2022-11-18T21:54:01.264Z,10.10
2022-11-18T21:56:30.859Z,10.20
2022-11-18T21:58:59.972Z,10.00
2022-11-18T22:01:33.437Z,10.20
2022-11-18T22:04:02.478Z,10.10
2022-11-18T22:06:31.438Z,10.10
2022-11-18T22:08:58.762Z,10.10
2022-11-18T22:11:25.887Z,10.00
2022-11-18T22:13:53.463Z,10.10
2022-11-18T22:16:22.898Z,10.20
2022-11-18T22:18:56.518Z,10.30
2022-11-18T22:21:26.000Z,10.30
2022-11-18T22:23:52.832Z,10.40
2022-11-18T22:26:21.278Z,10.50
2022-11-18T22:28:53.397Z,10.50
2022-11-18T22:31:21.087Z,10.40
2022-11-18T22:33:48.528Z,10.30
2022-11-18T22:36:17.309Z,10.20
2022-11-18T22:38:45.098Z,10.40
2022-11-18T22:41:35.168Z,10.20
2022-11-18T22:44:07.433Z,10.30
2022-11-18T22:46:35.914Z,10.20
2022-11-18T22:49:02.706Z,10.20
2022-11-18T22:51:29.253Z,10.30
2022-11-18T22:54:15.890Z,10.20
2022-11-18T22:56:42.585Z,10.20
2022-11-18T22:59:12.061Z,10.30
2022-11-18T23:01:38.893Z,10.20
2022-11-18T23:04:05.661Z,10.10
2022-11-18T23:06:32.326Z,10.20
2022-11-18T23:08:58.909Z,10.20
2022-11-18T23:11:44.211Z,10.10
2022-11-18T23:14:11.026Z,10.20
2022-11-18T23:16:40.133Z,10.10
2022-11-18T23:19:12.278Z,10.10
2022-11-18T23:21:39.294Z,10.00
2022-11-18T23:24:06.682Z,9.90
2022-11-18T23:26:33.704Z,9.70
2022-11-18T23:29:00.344Z,9.50
2022-11-18T23:31:28.339Z,9.60
2022-11-18T23:33:56.340Z,9.70
2022-11-18T23:36:23.644Z,9.60
2022-11-18T23:38:52.123Z,9.70
2022-11-18T23:41:19.307Z,9.70
2022-11-18T23:43:48.154Z,9.60
2022-11-18T23:46:16.977Z,9.70
2022-11-18T23:48:44.745Z,9.60
2022-11-18T23:51:20.444Z,9.70
2022-11-18T23:53:50.957Z,9.30
2022-11-18T23:56:19.983Z,9.20
2022-11-18T23:58:49.271Z,9.40
